Pagina principale
METAR-TAF:

METAR-TAF

Aeroporti :

Aeroporto di Comiso

Comiso, Italia

latitudine: 36-59-30N, longitudine: 14-36-25E, altezza: 190 m

Osservazione

Il bollettino è stato emesso 23 minuti fa, alle 12:20 UTC
Vento 9 kt da est con raffiche fino a 19 kt, variando fra nord/nord-est e est/sud-est
Temperature 9°C
Umidità 81%
Pressione 1021 hPa
Visibilità: 9000 m
pioggia debole

METAR: LICB 091220Z AUTO 08009G19KT 030V110 9000 -RA OVC028/// 09/06 Q1021

Ora: 13:43 (12:43 UTC)

Previsione

Il bollettino è stato emesso 1 ora e 43 minuti fa, alle 11:00 UTC
Previsione valida dal 09 alle 12 UTC al 10 alle 12 UTC
Vento 20 kt da est/nord-est con raffiche fino a 30 kt
Visibilità: 4000 m
Nuvoloso ad un'altezza di 2000 ft
pioggia
Evoluzione graduale
dal 10 alle 03 UTC al 10 alle 06 UTC
Vento 35 kt da est/nord-est con raffiche fino a 45 kt

TAF: LICB 091100Z 0912/1012 06020G30KT 4000 RA BKN020 BECMG 1003/1006 07035G45KT

Osservazioni e previsioni meteorologiche di più di 4000 aeroporti (messaggi METAR e TAF).

Le stazioni disponibili sono rappresentate dai dischi gialli e rossi sulla carta.

Puntare il mouse per vedere il nome della stazione.

Clicca sopra per visualizzare le osservazioni e previsioni meteorologiche.

Per cambiare la mappa : fare clic sui pulsanti verdi con una croce nera per ingrandire, il pulsante verde con un trattino per diminuire, o sulla freccia verde per le mappe adiacenti.


METAR-TAF: